createdAt,value
2019-02-06T00:00:45.007Z,93.43
2019-02-06T00:03:33.649Z,92.44
2019-02-06T00:06:22.979Z,91.71
2019-02-06T00:09:14.214Z,92.23
2019-02-06T00:12:03.474Z,92.69
2019-02-06T00:14:52.386Z,93.11
2019-02-06T00:17:41.165Z,93.45
2019-02-06T00:20:29.672Z,93.76
2019-02-06T00:23:19.619Z,94.40
2019-02-06T00:26:08.643Z,94.57
2019-02-06T00:28:57.317Z,94.36
2019-02-06T00:31:46.186Z,93.94
2019-02-06T00:34:35.430Z,93.94
2019-02-06T00:37:24.334Z,94.31
2019-02-06T00:40:13.587Z,94.41
2019-02-06T00:43:02.551Z,94.31
2019-02-06T00:45:50.790Z,93.89
2019-02-06T00:48:41.710Z,93.28
2019-02-06T00:51:30.698Z,92.87
2019-02-06T00:54:21.057Z,92.27
2019-02-06T00:57:10.529Z,92.28
2019-02-06T00:59:59.837Z,92.21
2019-02-06T01:02:48.685Z,91.57
2019-02-06T01:05:38.928Z,91.06
2019-02-06T01:08:27.554Z,91.39
2019-02-06T01:11:15.704Z,91.27
2019-02-06T01:14:05.435Z,91.51
2019-02-06T01:16:54.097Z,91.49
2019-02-06T01:19:43.077Z,90.90
2019-02-06T01:22:32.038Z,90.28
2019-02-06T01:25:20.336Z,90.91
2019-02-06T01:28:09.077Z,92.22
2019-02-06T01:31:12.999Z,92.70
2019-02-06T01:34:01.345Z,92.56
2019-02-06T01:36:49.639Z,91.80
2019-02-06T01:39:37.987Z,90.78
2019-02-06T01:42:27.189Z,90.78
2019-02-06T01:45:17.707Z,89.41
2019-02-06T01:48:06.355Z,88.95
2019-02-06T01:50:55.446Z,89.08
2019-02-06T01:53:44.164Z,89.16
2019-02-06T01:56:33.528Z,90.01
2019-02-06T01:59:22.497Z,90.04
2019-02-06T02:02:10.830Z,89.86
2019-02-06T02:05:00.693Z,89.74
2019-02-06T02:07:50.956Z,89.60
2019-02-06T02:10:40.300Z,89.31
2019-02-06T02:13:28.453Z,88.77
2019-02-06T02:16:17.338Z,88.96
2019-02-06T02:19:06.148Z,89.41
2019-02-06T02:21:54.613Z,89.02
2019-02-06T02:24:43.928Z,89.22
2019-02-06T02:27:32.905Z,88.62
2019-02-06T02:30:28.517Z,88.28
2019-02-06T02:33:17.845Z,88.26
2019-02-06T02:36:16.048Z,87.99
2019-02-06T02:38:57.422Z,87.62
2019-02-06T02:41:46.532Z,89.20
2019-02-06T02:44:34.959Z,89.20
2019-02-06T02:47:23.651Z,88.68
2019-02-06T02:50:12.288Z,88.81
2019-02-06T02:53:00.701Z,89.85
2019-02-06T02:55:49.605Z,90.46
2019-02-06T02:58:38.449Z,91.12
2019-02-06T03:01:39.537Z,91.58
2019-02-06T03:04:31.129Z,91.55
2019-02-06T03:07:19.882Z,91.21
2019-02-06T03:10:09.594Z,90.31
2019-02-06T03:12:58.029Z,89.88
2019-02-06T03:15:47.667Z,90.63
2019-02-06T03:18:36.495Z,91.23
2019-02-06T03:21:26.440Z,91.41
2019-02-06T03:24:15.670Z,91.93
2019-02-06T03:27:04.778Z,92.38
2019-02-06T03:29:52.670Z,92.55
2019-02-06T03:32:41.637Z,92.75
2019-02-06T03:35:30.096Z,92.66
2019-02-06T03:38:18.867Z,92.46
2019-02-06T03:41:07.797Z,92.00
2019-02-06T03:43:56.628Z,91.56
2019-02-06T03:46:46.668Z,91.65
2019-02-06T03:49:35.959Z,91.35
2019-02-06T03:52:24.733Z,90.72
2019-02-06T03:55:14.213Z,90.17
2019-02-06T03:58:02.329Z,90.81
2019-02-06T04:00:51.305Z,92.11
2019-02-06T04:03:39.883Z,93.03
2019-02-06T04:06:28.606Z,93.55
2019-02-06T04:09:16.590Z,93.77
2019-02-06T04:12:06.626Z,93.84
2019-02-06T04:14:54.878Z,93.93
2019-02-06T04:17:43.823Z,93.99
2019-02-06T04:20:32.759Z,93.79
2019-02-06T04:23:21.775Z,93.45
2019-02-06T04:26:10.639Z,93.44
2019-02-06T04:28:59.628Z,93.75
2019-02-06T04:31:47.724Z,93.64
2019-02-06T04:34:53.656Z,93.08
2019-02-06T04:37:43.328Z,92.35
2019-02-06T04:40:33.016Z,91.21
2019-02-06T04:43:22.007Z,90.71
2019-02-06T04:46:10.875Z,90.05
2019-02-06T04:48:59.496Z,89.46
2019-02-06T04:51:48.435Z,90.15
2019-02-06T04:54:38.569Z,90.66
2019-02-06T04:57:27.210Z,90.39
2019-02-06T05:00:25.990Z,89.63
2019-02-06T05:03:15.107Z,89.27
2019-02-06T05:06:04.513Z,89.28
2019-02-06T05:08:54.546Z,89.54
2019-02-06T05:11:43.284Z,90.41
2019-02-06T05:14:32.165Z,90.72
2019-02-06T05:17:20.799Z,91.31
2019-02-06T05:20:31.284Z,92.18
2019-02-06T05:23:19.905Z,92.79
2019-02-06T05:26:08.185Z,93.09
2019-02-06T05:28:57.683Z,93.71
2019-02-06T05:31:51.930Z,93.96
2019-02-06T05:34:40.935Z,93.65
2019-02-06T05:37:32.304Z,92.92
2019-02-06T05:40:20.915Z,92.87
2019-02-06T05:43:10.838Z,92.56
2019-02-06T05:45:59.166Z,91.85
2019-02-06T05:48:50.646Z,91.15
2019-02-06T05:51:39.300Z,90.63
2019-02-06T05:54:28.511Z,90.15
2019-02-06T05:57:20.754Z,90.11
2019-02-06T06:00:13.070Z,89.98
2019-02-06T06:03:01.574Z,89.57
2019-02-06T06:05:50.326Z,89.21
2019-02-06T06:08:39.176Z,88.64
2019-02-06T06:11:27.946Z,88.45
2019-02-06T06:14:17.504Z,88.75
2019-02-06T06:17:06.707Z,89.00
2019-02-06T06:19:55.589Z,88.99
2019-02-06T06:22:45.502Z,88.52
2019-02-06T06:25:35.292Z,88.58
2019-02-06T06:28:26.007Z,89.01
2019-02-06T06:31:17.363Z,88.99
2019-02-06T06:34:05.372Z,89.03
2019-02-06T06:36:56.842Z,89.26
2019-02-06T06:39:46.643Z,89.62
2019-02-06T06:42:35.165Z,89.63
2019-02-06T06:45:24.193Z,89.61
2019-02-06T06:48:13.140Z,89.59
2019-02-06T06:51:02.826Z,89.65
2019-02-06T06:53:52.187Z,90.41
2019-02-06T06:56:41.166Z,91.00
2019-02-06T06:59:29.508Z,90.85
2019-02-06T07:02:18.535Z,90.47
2019-02-06T07:05:07.611Z,90.47
2019-02-06T07:08:09.050Z,90.06
2019-02-06T07:10:48.383Z,89.61
2019-02-06T07:13:37.902Z,89.33
2019-02-06T07:16:27.108Z,89.27
2019-02-06T07:19:15.754Z,88.76
2019-02-06T07:22:04.205Z,88.47
2019-02-06T07:24:53.110Z,88.40
2019-02-06T07:27:46.121Z,88.09
2019-02-06T07:30:36.831Z,87.85
2019-02-06T07:33:25.443Z,87.54
2019-02-06T07:36:14.751Z,87.22
2019-02-06T07:39:06.529Z,86.70
2019-02-06T07:41:55.410Z,86.57
2019-02-06T07:44:44.004Z,86.43
2019-02-06T07:47:33.121Z,86.11
2019-02-06T07:50:26.500Z,86.66
2019-02-06T07:53:16.395Z,86.39
2019-02-06T07:56:05.689Z,86.23
2019-02-06T07:58:53.851Z,86.08
2019-02-06T08:01:42.382Z,85.31
2019-02-06T08:04:31.017Z,85.74
2019-02-06T08:07:19.661Z,86.12
2019-02-06T08:10:11.814Z,85.79
2019-02-06T08:13:01.015Z,85.96
2019-02-06T08:15:50.947Z,86.35
2019-02-06T08:18:40.604Z,86.39
2019-02-06T08:21:29.731Z,88.09
2019-02-06T08:24:18.322Z,88.09
2019-02-06T08:27:07.187Z,88.03
2019-02-06T08:29:56.219Z,87.18
2019-02-06T08:32:44.131Z,86.92
2019-02-06T08:35:33.351Z,86.98
2019-02-06T08:38:22.125Z,86.66
2019-02-06T08:41:11.361Z,86.53
2019-02-06T08:44:01.880Z,86.53
2019-02-06T08:46:50.319Z,85.57
2019-02-06T08:49:40.049Z,84.59
2019-02-06T08:52:28.620Z,84.59
2019-02-06T08:55:19.977Z,84.47
2019-02-06T08:58:08.680Z,84.08
2019-02-06T09:00:57.014Z,83.89
2019-02-06T09:03:45.574Z,82.09
2019-02-06T09:06:34.548Z,82.09
2019-02-06T09:09:22.922Z,82.28
2019-02-06T09:12:12.333Z,84.31
2019-02-06T09:15:01.522Z,84.41
2019-02-06T09:17:49.689Z,84.81
2019-02-06T09:20:38.210Z,84.50
2019-02-06T09:23:28.240Z,83.89
2019-02-06T09:26:17.548Z,83.48
2019-02-06T09:29:06.819Z,83.48
2019-02-06T09:31:59.317Z,82.57
2019-02-06T09:34:47.277Z,81.92
2019-02-06T09:37:36.331Z,82.73
2019-02-06T09:40:26.790Z,86.39
2019-02-06T09:43:15.462Z,86.39
2019-02-06T09:46:04.212Z,84.44
2019-02-06T09:48:55.515Z,84.44
2019-02-06T09:51:46.902Z,84.11
2019-02-06T09:54:35.627Z,82.75
2019-02-06T09:57:24.489Z,82.75
2019-02-06T10:00:19.809Z,83.67
2019-02-06T10:03:10.730Z,82.70
2019-02-06T10:05:59.794Z,84.40
2019-02-06T10:08:48.061Z,84.40
2019-02-06T10:11:36.806Z,85.29
2019-02-06T10:14:25.628Z,81.70
2019-02-06T10:17:14.439Z,80.43
2019-02-06T10:20:03.632Z,81.44
2019-02-06T10:22:51.868Z,80.57
2019-02-06T10:25:40.124Z,80.57
2019-02-06T10:28:29.432Z,81.48
2019-02-06T10:31:18.939Z,82.05
2019-02-06T10:34:07.950Z,81.97
2019-02-06T10:36:56.525Z,81.37
2019-02-06T10:39:45.041Z,82.13
2019-02-06T10:42:34.064Z,81.86
2019-02-06T10:45:23.991Z,81.48
2019-02-06T10:48:13.920Z,82.20
2019-02-06T10:51:02.929Z,82.49
2019-02-06T10:53:52.318Z,82.49
2019-02-06T10:56:42.000Z,81.59
2019-02-06T10:59:30.541Z,80.84
2019-02-06T11:02:18.599Z,81.02
2019-02-06T11:05:07.348Z,83.21
2019-02-06T11:07:55.533Z,83.21
2019-02-06T11:10:43.962Z,83.38
2019-02-06T11:13:32.231Z,84.61
2019-02-06T11:16:20.490Z,82.08
2019-02-06T11:19:09.247Z,83.38
2019-02-06T11:21:58.165Z,82.38
2019-02-06T11:24:46.651Z,82.13
2019-02-06T11:27:36.167Z,81.21
2019-02-06T11:30:26.468Z,81.21
2019-02-06T11:33:15.482Z,79.66
2019-02-06T11:36:04.482Z,79.72
2019-02-06T11:38:54.662Z,79.72
2019-02-06T11:41:43.807Z,80.02
2019-02-06T11:44:32.702Z,80.02
2019-02-06T11:47:22.586Z,80.32
2019-02-06T11:50:14.861Z,80.32
2019-02-06T11:53:03.725Z,80.09
2019-02-06T11:55:53.938Z,80.01
2019-02-06T11:58:42.172Z,80.43
2019-02-06T12:01:34.931Z,79.98
2019-02-06T12:04:23.622Z,80.49
2019-02-06T12:07:11.989Z,79.96
2019-02-06T12:10:09.782Z,78.42
2019-02-06T12:12:56.142Z,79.37
2019-02-06T12:15:44.934Z,78.60
2019-02-06T12:18:35.729Z,78.60
2019-02-06T12:21:24.653Z,79.39
2019-02-06T12:24:13.175Z,81.26
2019-02-06T12:27:01.978Z,81.25
2019-02-06T12:29:50.504Z,81.13
2019-02-06T12:32:39.273Z,79.59
2019-02-06T12:35:27.840Z,78.24
2019-02-06T12:38:16.771Z,78.89
2019-02-06T12:41:06.119Z,78.76
2019-02-06T12:43:55.738Z,77.52
2019-02-06T12:46:43.958Z,76.99
2019-02-06T12:49:32.213Z,76.95
2019-02-06T12:52:20.456Z,76.57
2019-02-06T12:55:11.578Z,76.47
2019-02-06T12:58:00.628Z,77.00
2019-02-06T13:00:49.786Z,77.62
2019-02-06T13:03:38.955Z,77.94
2019-02-06T13:06:28.512Z,77.89
2019-02-06T13:09:16.813Z,78.88
2019-02-06T13:12:06.061Z,78.94
2019-02-06T13:14:55.276Z,79.03
2019-02-06T13:17:44.169Z,79.32
2019-02-06T13:20:33.575Z,79.10
2019-02-06T13:23:22.233Z,78.71
2019-02-06T13:26:10.621Z,79.16
2019-02-06T13:28:59.387Z,78.50
2019-02-06T13:31:48.307Z,79.15
2019-02-06T13:34:37.073Z,78.84
2019-02-06T13:37:26.192Z,77.83
2019-02-06T13:40:16.785Z,78.45
2019-02-06T13:43:05.899Z,78.91
2019-02-06T13:45:54.883Z,79.27
2019-02-06T13:48:43.847Z,80.21
2019-02-06T13:51:34.075Z,79.70
2019-02-06T13:54:22.932Z,78.44
2019-02-06T13:57:11.983Z,79.30
2019-02-06T14:00:01.228Z,78.84
2019-02-06T14:02:50.401Z,78.70
2019-02-06T14:05:39.487Z,79.04
2019-02-06T14:08:29.073Z,80.39
2019-02-06T14:11:18.446Z,80.72
2019-02-06T14:14:06.934Z,80.72
2019-02-06T14:16:56.152Z,80.65
2019-02-06T14:19:45.503Z,80.59
2019-02-06T14:22:33.828Z,80.97
2019-02-06T14:25:27.249Z,81.07
2019-02-06T14:28:50.023Z,81.42
2019-02-06T14:32:02.172Z,81.78
2019-02-06T14:35:24.877Z,81.78
2019-02-06T14:39:12.746Z,82.30
2019-02-06T14:42:44.956Z,82.65
2019-02-06T14:46:10.230Z,83.70
2019-02-06T14:49:13.540Z,83.70
2019-02-06T14:53:11.459Z,83.69
2019-02-06T14:56:23.688Z,83.69
2019-02-06T14:59:55.201Z,83.58
2019-02-06T15:03:08.516Z,82.58
2019-02-06T15:06:24.735Z,82.08
2019-02-06T15:09:47.731Z,82.34
2019-02-06T15:13:14.985Z,81.79
2019-02-06T15:16:26.648Z,81.62
2019-02-06T15:19:49.057Z,81.00
2019-02-06T15:23:05.254Z,81.51
2019-02-06T15:26:04.615Z,81.97
2019-02-06T15:29:30.633Z,81.29
2019-02-06T15:33:10.120Z,81.42
2019-02-06T15:36:20.628Z,81.94
2019-02-06T15:40:01.018Z,81.84
2019-02-06T15:43:35.491Z,81.75
2019-02-06T15:46:59.032Z,81.85
2019-02-06T15:49:55.270Z,81.85
2019-02-06T15:53:11.111Z,82.02
2019-02-06T15:56:31.441Z,82.02
2019-02-06T15:59:45.587Z,82.45
2019-02-06T16:02:54.662Z,82.45
2019-02-06T16:06:20.313Z,82.53
2019-02-06T16:09:54.689Z,82.92
2019-02-06T16:13:08.535Z,83.00
2019-02-06T16:16:33.240Z,83.21
2019-02-06T16:19:52.447Z,83.21
2019-02-06T16:23:30.908Z,83.31
2019-02-06T16:27:14.342Z,83.93
2019-02-06T16:30:17.509Z,83.93
2019-02-06T16:33:37.942Z,84.18
2019-02-06T16:36:43.857Z,85.45
2019-02-06T16:40:00.515Z,86.17
2019-02-06T16:43:46.043Z,87.17
2019-02-06T16:47:07.299Z,87.49
2019-02-06T16:50:40.221Z,87.58
2019-02-06T16:57:34.083Z,87.61
2019-02-06T17:01:03.834Z,87.53
2019-02-06T17:04:21.453Z,87.62
2019-02-06T17:08:19.081Z,87.65
2019-02-06T17:11:46.197Z,87.46
2019-02-06T17:15:02.701Z,87.44
2019-02-06T17:19:09.520Z,87.14
2019-02-06T17:22:44.577Z,86.87
2019-02-06T17:26:25.084Z,86.87
2019-02-06T17:29:56.916Z,86.80
2019-02-06T17:33:04.860Z,86.55
2019-02-06T17:36:24.019Z,86.31
2019-02-06T17:39:24.160Z,86.37
2019-02-06T17:42:41.331Z,86.24
2019-02-06T17:45:51.944Z,86.00
2019-02-06T17:49:11.936Z,86.42
2019-02-06T17:52:33.591Z,86.53
2019-02-06T17:55:26.019Z,86.61
2019-02-06T17:58:14.348Z,86.55
2019-02-06T18:01:10.896Z,86.84
2019-02-06T18:04:18.811Z,86.79
2019-02-06T18:07:07.688Z,86.64
2019-02-06T18:09:57.207Z,86.59
2019-02-06T18:12:46.480Z,86.59
2019-02-06T18:15:35.163Z,86.19
2019-02-06T18:18:24.249Z,86.19
2019-02-06T18:21:12.816Z,86.51
2019-02-06T18:24:01.980Z,86.87
2019-02-06T18:26:52.894Z,86.85
2019-02-06T18:29:42.355Z,86.75
2019-02-06T18:32:31.014Z,87.08
2019-02-06T18:35:21.101Z,87.44
2019-02-06T18:38:10.633Z,87.36
2019-02-06T18:40:59.308Z,86.89
2019-02-06T18:43:48.540Z,87.06
2019-02-06T18:46:36.873Z,86.88
2019-02-06T18:49:25.684Z,86.31
2019-02-06T18:52:20.518Z,86.87
2019-02-06T18:55:05.839Z,86.87
2019-02-06T18:57:55.014Z,86.99
2019-02-06T19:00:44.113Z,87.10
2019-02-06T19:03:39.201Z,87.11
2019-02-06T19:06:29.034Z,86.65
2019-02-06T19:09:18.346Z,86.34
2019-02-06T19:12:07.319Z,86.25
2019-02-06T19:14:58.779Z,86.15
2019-02-06T19:17:46.557Z,85.98
2019-02-06T19:20:35.763Z,85.87
2019-02-06T19:23:24.499Z,85.93
2019-02-06T19:26:14.042Z,86.06
2019-02-06T19:29:03.109Z,86.83
2019-02-06T19:31:51.315Z,86.61
2019-02-06T19:34:40.533Z,86.37
2019-02-06T19:37:29.256Z,86.32
2019-02-06T19:40:18.138Z,86.66
2019-02-06T19:43:11.792Z,86.87
2019-02-06T19:46:00.801Z,86.99
2019-02-06T19:48:55.491Z,86.83
2019-02-06T19:51:43.837Z,86.75
2019-02-06T19:54:32.777Z,86.07
2019-02-06T19:57:21.237Z,85.50
2019-02-06T20:00:12.354Z,85.41
2019-02-06T20:03:20.206Z,85.85
2019-02-06T20:06:28.506Z,86.69
2019-02-06T20:09:18.397Z,86.81
2019-02-06T20:12:08.511Z,86.11
2019-02-06T20:14:57.331Z,85.92
2019-02-06T20:17:46.826Z,86.36
2019-02-06T20:20:35.891Z,86.48
2019-02-06T20:23:24.783Z,86.14
2019-02-06T20:26:13.102Z,86.29
2019-02-06T20:29:03.145Z,86.29
2019-02-06T20:31:52.246Z,87.06
2019-02-06T20:34:41.432Z,87.30
2019-02-06T20:37:33.718Z,87.06
2019-02-06T20:40:29.175Z,87.41
2019-02-06T20:43:22.127Z,87.25
2019-02-06T20:46:09.264Z,87.08
2019-02-06T20:48:57.418Z,87.33
2019-02-06T20:51:45.759Z,87.32
2019-02-06T20:54:35.396Z,87.14
2019-02-06T20:57:24.273Z,87.07
2019-02-06T21:00:19.451Z,86.81
2019-02-06T21:03:07.800Z,86.68
2019-02-06T21:05:58.883Z,86.53
2019-02-06T21:08:48.018Z,86.53
2019-02-06T21:11:36.446Z,86.75
2019-02-06T21:14:24.982Z,86.58
2019-02-06T21:17:14.172Z,86.54
2019-02-06T21:20:03.654Z,86.73
2019-02-06T21:22:52.907Z,86.72
2019-02-06T21:25:46.921Z,86.65
2019-02-06T21:28:36.273Z,86.65
2019-02-06T21:31:25.006Z,86.51
2019-02-06T21:34:14.292Z,87.05
2019-02-06T21:37:03.771Z,87.23
2019-02-06T21:43:06.712Z,87.08
2019-02-06T21:45:55.756Z,87.10
2019-02-06T21:48:44.729Z,87.24
2019-02-06T21:51:33.334Z,87.50
2019-02-06T21:54:22.932Z,88.40
2019-02-06T21:57:11.803Z,88.42
2019-02-06T22:00:00.482Z,87.88
2019-02-06T22:02:49.165Z,87.78
2019-02-06T22:05:38.127Z,87.84
2019-02-06T22:08:26.721Z,88.06
2019-02-06T22:11:15.020Z,88.31
2019-02-06T22:14:03.850Z,87.72
2019-02-06T22:16:52.502Z,87.79
2019-02-06T22:19:40.626Z,88.41
2019-02-06T22:22:30.877Z,88.74
2019-02-06T22:25:20.797Z,88.94
2019-02-06T22:28:10.474Z,89.11
2019-02-06T22:31:00.725Z,89.03
2019-02-06T22:33:51.028Z,88.87
2019-02-06T22:36:40.802Z,88.70
2019-02-06T22:39:30.320Z,88.47
2019-02-06T22:42:19.869Z,88.90
2019-02-06T22:45:30.731Z,88.85
2019-02-06T22:48:22.261Z,88.90
2019-02-06T22:51:12.212Z,89.62
2019-02-06T22:54:01.887Z,90.02
2019-02-06T22:56:51.667Z,90.16
2019-02-06T23:02:51.124Z,89.52
2019-02-06T23:05:40.917Z,89.28
2019-02-06T23:08:30.796Z,88.92
2019-02-06T23:11:23.112Z,88.41
2019-02-06T23:14:18.039Z,89.13
2019-02-06T23:17:05.620Z,89.54
2019-02-06T23:19:55.146Z,89.28
2019-02-06T23:22:45.309Z,89.28
2019-02-06T23:25:34.825Z,89.15
2019-02-06T23:28:25.097Z,88.91
2019-02-06T23:31:14.954Z,88.34
2019-02-06T23:34:05.421Z,88.50
2019-02-06T23:36:55.485Z,88.62
2019-02-06T23:39:45.628Z,88.42
2019-02-06T23:42:35.695Z,88.19
2019-02-06T23:45:25.224Z,88.48
2019-02-06T23:48:15.692Z,88.35
2019-02-06T23:51:45.088Z,88.18
2019-02-06T23:54:35.085Z,88.34
2019-02-06T23:57:24.911Z,88.19
